Time;durP1;ratioP1;P1;durP2;ratioP2;P2;SDS_P1;SDS_P2;PMS_P1;PMS_P2;Temp;Humidity;BMP_temperature;BMP_pressure;BME280_temperature;BME280_humidity;BME280_pressure;Samples;Min_cycle;Max_cycle;Signal;HPM_P1;HPM_P2
2023/10/04 00:01:46;;;;;;;18.27;9.13;;;;;;;-141.97;60.19;47488.31;5105484;28;20171;-86
2023/10/04 00:04:12;;;;;;;19.90;9.33;;;;;;;-141.97;60.79;47434.50;5087258;28;20236;-87
2023/10/04 00:06:39;;;;;;;19.90;9.50;;;;;;;-141.97;60.43;47607.50;5076915;28;20183;-86
2023/10/04 00:09:05;;;;;;;23.47;9.80;;;;;;;-141.97;60.64;47453.72;5079286;28;20253;-87
2023/10/04 00:11:38;;;;;;;26.27;10.17;;;;;;;-141.97;61.16;47415.28;5094475;28;20533;-87
2023/10/04 00:14:07;;;;;;;23.40;11.37;;;;;;;-141.97;62.01;47467.19;5112838;28;20171;-87
2023/10/04 00:16:51;;;;;;;24.20;11.10;;;;;;;-141.97;62.21;47567.13;5112222;28;20171;-88
2023/10/04 00:19:44;;;;;;;31.93;10.70;;;;;;;-141.97;61.75;47471.03;5112359;28;20155;-88
2023/10/04 00:22:33;;;;;;;27.63;12.17;;;;;;;-141.97;61.45;47563.28;5093346;28;20591;-86
2023/10/04 00:25:11;;;;;;;29.03;12.00;;;;;;;-141.97;61.69;47611.34;5110920;28;20168;-85
2023/10/04 00:28:04;;;;;;;36.37;13.13;;;;;;;-141.97;62.67;47607.50;5092467;28;20647;-86
2023/10/04 00:30:34;;;;;;;26.63;12.67;;;;;;;-141.97;61.93;47457.56;5092803;28;20230;-87
2023/10/04 00:33:04;;;;;;;28.10;13.43;;;;;;;-141.97;61.55;47584.44;5112503;28;20166;-87
2023/10/04 00:35:40;;;;;;;27.50;13.43;;;;;;;-141.97;61.36;47411.44;5112673;28;20222;-87
2023/10/04 00:38:24;;;;;;;29.27;12.77;;;;;;;-141.97;61.11;47438.34;5128189;28;20151;-86
2023/10/04 00:41:04;;;;;;;30.27;13.20;;;;;;;-141.97;60.99;47538.28;5086314;28;20199;-87
2023/10/04 00:43:55;;;;;;;28.60;12.93;;;;;;;-141.97;60.87;47449.88;5076510;28;20192;-87
2023/10/04 00:46:24;;;;;;;32.73;13.97;;;;;;;-141.97;60.64;47599.81;5032885;28;20210;-88
2023/10/04 00:48:59;;;;;;;29.33;13.30;;;;;;;-141.97;61.30;47415.28;5015023;28;20198;-84
2023/10/04 00:51:36;;;;;;;25.03;12.70;;;;;;;-141.97;61.42;47276.91;5015094;28;20221;-84
2023/10/04 00:54:10;;;;;;;23.70;12.30;;;;;;;-141.97;60.99;47619.03;4997877;28;20665;-83
2023/10/04 00:56:41;;;;;;;27.40;12.47;;;;;;;-141.97;61.30;47526.75;5013297;28;20677;-84
2023/10/04 00:59:09;;;;;;;25.30;12.93;;;;;;;-141.97;61.52;47303.81;5016043;28;20178;-81
2023/10/04 01:01:40;;;;;;;27.47;13.40;;;;;;;-141.97;62.28;47607.50;5016694;28;20194;-83
2023/10/04 01:04:07;;;;;;;24.40;12.77;;;;;;;-141.97;62.39;47540.22;5004173;28;20648;-83
2023/10/04 01:06:35;;;;;;;27.47;12.90;;;;;;;-141.97;62.94;47311.50;4993014;28;20187;-83
2023/10/04 01:09:01;;;;;;;24.23;13.17;;;;;;;-141.97;64.06;47586.34;5013150;28;20432;-84
2023/10/04 01:11:32;;;;;;;26.00;13.07;;;;;;;-141.97;65.35;47632.47;5003571;28;20230;-84
2023/10/04 01:14:09;;;;;;;25.77;13.00;;;;;;;-141.97;66.48;47490.25;4996953;28;20194;-83
2023/10/04 01:16:40;;;;;;;22.93;12.43;;;;;;;-141.97;67.15;47580.59;5072127;28;20210;-84
2023/10/04 01:19:06;;;;;;;28.07;13.80;;;;;;;-141.97;66.97;47390.31;5138652;28;20232;-83
2023/10/04 01:21:32;;;;;;;28.43;13.70;;;;;;;-141.97;66.73;47607.50;5112560;28;20160;-84
2023/10/04 01:23:58;;;;;;;25.47;13.17;;;;;;;-141.97;67.06;47407.59;5095888;28;20635;-84
2023/10/04 01:26:26;;;;;;;30.97;14.90;;;;;;;-141.97;67.75;47592.13;5109087;28;20175;-84
2023/10/04 01:28:52;;;;;;;32.97;14.37;;;;;;;-141.97;67.76;47519.06;5115353;28;20209;-84
2023/10/04 01:31:20;;;;;;;28.17;14.73;;;;;;;-141.97;67.70;47390.31;5116014;28;20612;-84
2023/10/04 01:33:46;;;;;;;32.30;15.00;;;;;;;-141.97;66.86;47494.09;5115177;28;20155;-84
2023/10/04 01:36:14;;;;;;;33.43;15.03;;;;;;;-141.97;66.33;47461.41;5114180;28;20251;-84
2023/10/04 01:38:47;;;;;;;36.27;16.33;;;;;;;-141.97;66.80;47476.78;5096811;28;20596;-85
2023/10/04 01:41:12;;;;;;;37.17;15.90;;;;;;;-141.97;66.75;47338.41;5096916;28;20186;-84
2023/10/04 01:43:38;;;;;;;31.27;15.40;;;;;;;-141.97;66.37;47630.56;5115122;28;20175;-84
2023/10/04 01:46:04;;;;;;;30.47;14.77;;;;;;;-141.97;65.70;47630.56;5096245;28;20274;-84
2023/10/04 01:48:31;;;;;;;30.37;14.60;;;;;;;-141.97;66.54;47319.19;5097627;28;20533;-84
2023/10/04 01:50:57;;;;;;;31.53;15.07;;;;;;;-141.97;67.23;47576.75;5115503;28;20175;-84
2023/10/04 01:53:42;;;;;;;32.47;15.67;;;;;;;-141.97;66.77;47438.34;5096336;28;20171;-86
2023/10/04 01:56:08;;;;;;;29.77;15.17;;;;;;;-141.97;67.43;47426.81;5069442;28;20324;-88
2023/10/04 01:58:33;;;;;;;35.73;16.23;;;;;;;-141.97;67.58;47351.88;5095475;28;20580;-88
2023/10/04 02:01:01;;;;;;;31.33;15.33;;;;;;;-141.97;67.03;47409.53;5096290;28;20195;-87
2023/10/04 02:03:27;;;;;;;31.70;15.03;;;;;;;-141.97;67.76;47576.75;5111248;28;20172;-87
2023/10/04 02:05:56;;;;;;;32.60;14.73;;;;;;;-141.97;67.05;47336.50;5088539;28;20674;-87
2023/10/04 02:08:22;;;;;;;30.27;15.13;;;;;;;-141.97;66.48;47398.00;5110784;28;20204;-87
2023/10/04 02:10:50;;;;;;;31.70;14.70;;;;;;;-141.97;67.26;47642.09;5077276;27;20725;-86
2023/10/04 02:13:16;;;;;;;32.07;14.83;;;;;;;-141.97;67.58;47376.84;5108285;28;20216;-87
2023/10/04 02:15:50;;;;;;;27.93;13.67;;;;;;;-141.97;67.25;47519.06;5099812;28;20183;-85
2023/10/04 02:18:25;;;;;;;28.47;13.90;;;;;;;-141.97;68.13;47438.34;5093793;28;20218;-85
2023/10/04 02:20:53;;;;;;;30.90;13.97;;;;;;;-141.97;67.86;47478.72;5100872;28;20522;-85
2023/10/04 02:23:41;;;;;;;;;;;;;;;;;;;;;
2023/10/04 02:26:13;;;;;;;26.50;14.20;;;;;;;-141.97;68.67;47605.56;5116618;28;20174;-85
2023/10/04 02:28:47;;;;;;;29.73;14.57;;;;;;;-141.97;69.43;47357.63;5094878;28;20274;-85
2023/10/04 02:31:15;;;;;;;28.07;14.10;;;;;;;-141.97;69.32;47469.09;5117203;28;20171;-86
2023/10/04 02:33:47;;;;;;;29.30;14.77;;;;;;;-141.97;68.99;47417.22;5095977;28;20187;-85
2023/10/04 02:36:37;;;;;;;29.10;13.37;;;;;;;-141.97;69.08;47544.06;5113518;28;20223;-85
2023/10/04 02:39:11;;;;;;;29.97;14.40;;;;;;;-141.97;69.42;47457.56;5114179;28;20545;-85
2023/10/04 02:41:59;;;;;;;29.60;13.23;;;;;;;-141.97;69.40;47597.88;5113497;28;20185;-87
2023/10/04 02:44:47;;;;;;;23.97;12.90;;;;;;;-141.97;69.72;47422.97;5095471;28;20178;-85
2023/10/04 02:47:18;;;;;;;29.17;13.00;;;;;;;-141.97;69.29;47488.31;5095624;28;20521;-86
2023/10/04 02:49:53;;;;;;;30.03;13.67;;;;;;;-141.97;69.06;47638.25;5096042;28;20190;-86
2023/10/04 02:52:30;;;;;;;25.43;13.03;;;;;;;-141.97;69.76;47465.25;5113527;28;20181;-87
2023/10/04 02:55:07;;;;;;;25.53;12.87;;;;;;;-141.97;69.35;47501.78;5116286;28;20178;-88
2023/10/04 02:57:38;;;;;;;26.43;12.03;;;;;;;-141.97;68.69;47599.81;5114556;28;20623;-85
2023/10/04 03:00:17;;;;;;;21.40;11.67;;;;;;;-141.97;69.23;47507.53;5096194;28;20175;-87
2023/10/04 03:02:50;;;;;;;29.20;11.87;;;;;;;-141.97;69.85;47559.44;5095184;28;20182;-87
2023/10/04 03:05:19;;;;;;;23.67;11.50;;;;;;;-141.97;69.73;47499.84;5094008;28;20527;-87
2023/10/04 03:07:51;;;;;;;26.87;12.23;;;;;;;-141.97;69.54;47569.06;5074314;28;20187;-86
2023/10/04 03:10:34;;;;;;;21.20;11.57;;;;;;;-141.97;68.94;47534.44;5083436;28;20690;-88
2023/10/04 03:13:44;;;;;;;22.97;11.27;;;;;;;-141.97;68.29;47517.16;5095470;28;20267;-87
2023/10/04 03:16:11;;;;;;;25.93;11.43;;;;;;;-141.97;68.74;47478.72;5094397;28;20191;-89
2023/10/04 03:18:39;;;;;;;20.00;10.50;;;;;;;-141.97;68.00;47526.75;5099914;28;20229;-87
2023/10/04 03:21:20;;;;;;;27.37;11.97;;;;;;;-141.97;67.37;47511.38;5124168;28;20197;-87
2023/10/04 03:23:55;;;;;;;28.03;12.00;;;;;;;-141.97;67.29;47603.66;5113898;28;20257;-88
2023/10/04 03:26:21;;;;;;;23.77;12.37;;;;;;;-141.97;66.84;47557.53;5101968;28;20171;-85
2023/10/04 03:28:46;;;;;;;22.33;11.77;;;;;;;-141.97;67.01;47447.97;5095155;28;20548;-85
2023/10/04 03:31:14;;;;;;;21.80;12.13;;;;;;;-141.97;66.57;47584.44;5113307;28;20647;-84
2023/10/04 03:33:45;;;;;;;22.43;10.90;;;;;;;-141.97;66.44;47578.66;5113180;28;20163;-86
2023/10/04 03:36:14;;;;;;;22.63;11.83;;;;;;;-141.97;66.65;47619.03;5094340;28;20241;-87
2023/10/04 03:38:41;;;;;;;22.00;11.60;;;;;;;-141.97;67.35;47659.38;5112926;28;20212;-87
2023/10/04 03:41:06;;;;;;;26.93;11.70;;;;;;;-141.97;68.40;47440.28;5111968;28;20694;-86
2023/10/04 03:43:35;;;;;;;29.20;12.47;;;;;;;-141.97;69.15;47570.97;5113312;28;20164;-86
2023/10/04 03:46:16;;;;;;;25.73;12.13;;;;;;;-141.97;70.56;47561.38;5094476;28;20175;-85
2023/10/04 03:48:42;;;;;;;21.97;11.77;;;;;;;-141.97;71.03;47580.59;5116874;28;20186;-85
2023/10/04 03:51:20;;;;;;;23.53;12.37;;;;;;;-141.97;70.70;47595.97;5129086;28;20195;-83
2023/10/04 03:53:49;;;;;;;29.50;12.87;;;;;;;-141.97;71.56;47626.72;5127358;28;20171;-86
2023/10/04 03:56:17;;;;;;;29.27;13.77;;;;;;;-141.97;71.30;47401.84;5094898;28;20178;-86
2023/10/04 03:58:45;;;;;;;27.03;13.07;;;;;;;-141.97;70.69;47599.81;5094207;28;20167;-82
2023/10/04 04:01:24;;;;;;;26.57;13.20;;;;;;;-141.97;71.49;47594.03;5112204;28;20187;-83
2023/10/04 04:03:51;;;;;;;34.10;14.43;;;;;;;-141.97;72.67;47582.50;5104665;28;20168;-85
2023/10/04 04:06:17;;;;;;;26.33;13.23;;;;;;;-141.97;72.90;47517.16;5073932;28;20174;-86
2023/10/04 04:08:42;;;;;;;27.27;13.63;;;;;;;-141.97;73.10;47344.19;5073684;28;20216;-87
2023/10/04 04:11:08;;;;;;;27.10;13.13;;;;;;;-141.97;72.38;47438.34;5066072;28;20231;-86
2023/10/04 04:13:36;;;;;;;33.17;13.40;;;;;;;-141.97;71.69;47398.00;5090779;28;20170;-83
2023/10/04 04:16:09;;;;;;;27.10;12.73;;;;;;;-141.97;71.09;47615.19;5092103;28;20172;-85
2023/10/04 04:18:37;;;;;;;25.60;13.13;;;;;;;-141.97;70.78;47588.28;5107264;28;20175;-83
2023/10/04 04:21:05;;;;;;;35.47;13.73;;;;;;;-141.97;70.39;47515.22;5107791;28;20180;-86
2023/10/04 04:23:31;;;;;;;27.60;13.50;;;;;;;-141.97;69.89;47620.94;5107530;28;20652;-84
2023/10/04 04:25:59;;;;;;;29.67;13.60;;;;;;;-141.97;69.40;47584.44;5105750;28;20172;-84
2023/10/04 04:28:37;;;;;;;33.77;14.63;;;;;;;-141.97;69.10;47561.38;5098741;28;20156;-85
2023/10/04 04:31:19;;;;;;;30.30;14.57;;;;;;;-141.97;69.01;47607.50;5091454;28;20202;-85
2023/10/04 04:33:46;;;;;;;31.90;15.03;;;;;;;-141.97;69.00;47511.38;5091251;28;20160;-86
2023/10/04 04:39:09;;;;;;;32.70;15.77;;;;;;;-141.97;68.79;47572.91;5048944;28;20199;-86
2023/10/04 04:41:35;;;;;;;32.23;15.30;;;;;;;-141.97;69.13;47601.72;5048684;28;20212;-87
2023/10/04 04:44:07;;;;;;;23.73;12.97;;;;;;;-141.97;69.32;47590.19;5048965;28;20733;-86
2023/10/04 04:46:33;;;;;;;28.63;13.03;;;;;;;-141.97;69.92;47534.44;5049516;28;20164;-86
2023/10/04 04:48:58;;;;;;;30.00;13.50;;;;;;;-141.97;70.82;47632.47;5033666;28;20193;-86
2023/10/04 04:51:23;;;;;;;30.57;14.77;;;;;;;-141.97;70.85;47551.75;5049150;28;20180;-87
2023/10/04 04:53:53;;;;;;;38.13;17.27;;;;;;;-141.97;69.86;47588.28;5049736;28;20248;-86
2023/10/04 04:56:21;;;;;;;84.77;42.90;;;;;;;-141.97;69.52;47624.78;5048931;28;20182;-86
2023/10/04 04:58:47;;;;;;;207.40;122.03;;;;;;;-141.97;68.91;47486.41;5049658;28;20185;-85
2023/10/04 05:01:13;;;;;;;223.60;130.63;;;;;;;-141.97;67.95;47517.16;5049067;28;20169;-87
2023/10/04 05:03:45;;;;;;;171.70;98.10;;;;;;;-141.97;67.55;47530.59;5044112;28;20217;-85
2023/10/04 05:06:22;;;;;;;77.40;42.97;;;;;;;-141.97;66.96;47522.91;5014284;28;20180;-86
2023/10/04 05:08:54;;;;;;;33.97;16.50;;;;;;;-141.97;66.55;47553.69;5029341;28;20751;-87
2023/10/04 05:11:20;;;;;;;31.53;15.87;;;;;;;-141.97;66.30;47538.28;5018227;28;20356;-86
2023/10/04 05:13:46;;;;;;;27.37;13.83;;;;;;;-141.97;66.29;47546.00;5029210;28;20159;-85
2023/10/04 05:16:11;;;;;;;33.07;17.17;;;;;;;-141.97;66.33;47553.69;5069801;28;20180;-85
2023/10/04 05:18:37;;;;;;;37.23;19.77;;;;;;;-141.97;66.74;47542.16;5096729;28;20219;-85
2023/10/04 05:21:04;;;;;;;40.03;19.67;;;;;;;-141.97;66.79;47434.50;5096789;28;20171;-84
2023/10/04 05:23:29;;;;;;;39.33;18.53;;;;;;;-141.97;67.49;47521.00;5091586;28;20543;-86
2023/10/04 05:25:55;;;;;;;29.37;15.40;;;;;;;-141.97;68.40;47549.84;5073724;28;20588;-85
2023/10/04 05:28:24;;;;;;;23.80;13.30;;;;;;;-141.97;68.28;47651.69;5091887;28;20160;-86
2023/10/04 05:30:51;;;;;;;23.07;11.97;;;;;;;-141.97;68.80;47532.53;5091835;28;20218;-85
2023/10/04 05:33:18;;;;;;;24.27;12.07;;;;;;;-141.97;68.93;47626.72;5094168;28;20546;-85
2023/10/04 05:36:03;;;;;;;22.50;11.93;;;;;;;-141.97;67.95;47599.81;5111801;28;20222;-89
2023/10/04 05:38:32;;;;;;;23.27;12.30;;;;;;;-141.97;68.36;47628.63;5097951;28;20167;-89
2023/10/04 05:41:15;;;;;;;26.53;12.90;;;;;;;-141.97;68.19;47605.56;5103383;28;20202;-89
2023/10/04 05:43:49;;;;;;;24.43;12.90;;;;;;;-141.97;68.65;47620.94;5115972;28;20175;-87
2023/10/04 05:46:15;;;;;;;24.37;13.53;;;;;;;-141.97;68.67;47607.50;5109524;28;20619;-87
2023/10/04 05:48:48;;;;;;;26.83;12.73;;;;;;;-141.97;67.87;47584.44;5098975;28;20225;-89
2023/10/04 05:51:17;;;;;;;30.47;13.03;;;;;;;-141.97;67.06;47494.09;5096072;28;20191;-87
2023/10/04 05:53:43;;;;;;;29.07;13.40;;;;;;;-141.97;65.90;47503.69;5097226;28;20182;-90
2023/10/04 05:56:17;;;;;;;22.63;12.70;;;;;;;-141.97;66.21;47349.94;5097112;28;20168;-89
2023/10/04 05:58:48;;;;;;;26.03;13.23;;;;;;;-141.97;66.52;47348.03;5098134;28;20181;-88
2023/10/04 06:01:37;;;;;;;27.60;13.10;;;;;;;-141.97;65.12;47346.09;5118013;28;20168;-89
2023/10/04 06:07:33;;;;;;;26.87;13.27;;;;;;;-141.97;65.12;47465.25;5095983;28;20248;-90
2023/10/04 06:10:01;;;;;;;22.93;12.30;;;;;;;-141.97;64.31;47603.66;5063864;27;20570;-89
2023/10/04 06:12:32;;;;;;;28.40;13.00;;;;;;;-141.97;63.71;47388.38;5089053;28;20190;-89
2023/10/04 06:15:04;;;;;;;21.67;13.03;;;;;;;-141.97;64.37;47486.41;5114977;28;20259;-89
2023/10/04 06:17:35;;;;;;;24.40;11.87;;;;;;;-141.97;64.00;47626.72;5117106;28;20163;-90
2023/10/04 06:20:00;;;;;;;27.83;12.73;;;;;;;-141.97;62.91;47647.84;5097986;28;20258;-86
2023/10/04 06:22:26;;;;;;;23.73;12.10;;;;;;;-141.97;61.89;47569.06;5101197;28;20171;-84
2023/10/04 06:24:51;;;;;;;23.73;11.90;;;;;;;-141.97;60.85;47544.06;5134585;28;20168;-86
2023/10/04 06:27:16;;;;;;;20.83;11.60;;;;;;;-141.97;61.02;47536.38;5127089;28;20163;-84
2023/10/04 06:29:43;;;;;;;25.50;12.53;;;;;;;-141.97;60.01;47526.75;5131846;28;20222;-86
2023/10/04 06:32:09;;;;;;;23.17;12.37;;;;;;;-141.97;58.65;47492.16;5134722;28;20183;-86
2023/10/04 06:34:35;;;;;;;21.30;11.20;;;;;;;-141.97;57.58;47451.81;5126297;28;20569;-85
2023/10/04 06:37:00;;;;;;;24.47;11.53;;;;;;;-141.97;56.78;47505.63;5125429;28;20171;-85
2023/10/04 06:39:25;;;;;;;23.13;11.90;;;;;;;-141.97;56.36;47484.47;5114780;28;20292;-90
2023/10/04 06:41:52;;;;;;;30.07;11.43;;;;;;;-141.97;55.42;47342.25;5095649;28;20207;-87
2023/10/04 06:44:18;;;;;;;22.97;11.70;;;;;;;-141.97;54.84;47526.75;5107188;28;20176;-87
2023/10/04 06:46:43;;;;;;;21.63;10.87;;;;;;;-141.97;53.52;47580.59;5075021;28;20529;-87
2023/10/04 06:49:09;;;;;;;24.43;11.70;;;;;;;-141.97;53.21;47403.75;5093142;28;20199;-87
2023/10/04 06:51:34;;;;;;;23.73;10.93;;;;;;;-141.97;52.75;47367.25;5078722;28;20203;-89
2023/10/04 06:54:05;;;;;;;18.00;10.00;;;;;;;-141.97;51.97;47549.84;5095882;28;20168;-88
2023/10/04 06:56:30;;;;;;;22.50;10.97;;;;;;;-141.97;53.93;47378.78;5114219;28;20647;-90
2023/10/04 06:58:55;;;;;;;20.67;11.67;;;;;;;-141.97;54.63;47549.84;5097456;28;20167;-87
2023/10/04 07:01:21;;;;;;;21.67;10.13;;;;;;;-141.97;53.21;47592.13;5095386;28;20193;-87
2023/10/04 07:03:46;;;;;;;19.73;10.57;;;;;;;-141.97;51.85;47597.88;5088810;28;20175;-87
2023/10/04 07:06:12;;;;;;;19.17;10.20;;;;;;;-141.97;50.54;47386.47;5097886;28;20179;-88
2023/10/04 07:08:37;;;;;;;20.80;10.90;;;;;;;-141.97;49.33;47369.16;5077732;28;20168;-87
2023/10/04 07:11:04;;;;;;;22.17;11.07;;;;;;;-141.97;50.43;47611.34;5083809;27;20227;-87
2023/10/04 07:13:32;;;;;;;21.53;10.93;;;;;;;-141.97;49.80;47588.28;5093255;28;20187;-88
2023/10/04 07:15:57;;;;;;;19.37;10.40;;;;;;;-141.97;49.17;47490.25;5092873;28;20167;-88
2023/10/04 07:18:23;;;;;;;24.83;10.60;;;;;;;-141.97;48.39;47655.53;5097785;28;20179;-87
2023/10/04 07:20:49;;;;;;;19.57;10.20;;;;;;;-141.97;47.60;47494.09;5092153;28;20195;-88
2023/10/04 07:23:16;;;;;;;21.47;10.73;;;;;;;-141.97;46.91;47609.41;5092830;28;20239;-86
2023/10/04 07:25:42;;;;;;;20.23;10.33;;;;;;;-141.97;47.37;47459.50;5092865;28;20181;-88
2023/10/04 07:28:11;;;;;;;18.87;10.10;;;;;;;-141.97;48.67;47626.72;5092416;28;20160;-89
2023/10/04 07:30:39;;;;;;;19.37;10.83;;;;;;;-141.97;47.80;47486.41;5092936;28;20199;-86
2023/10/04 07:33:04;;;;;;;19.37;9.97;;;;;;;-141.97;46.56;47515.22;5092596;28;20160;-87
2023/10/04 07:35:32;;;;;;;21.40;10.07;;;;;;;-141.97;46.24;47449.88;5106948;28;20280;-89
2023/10/04 07:37:58;;;;;;;18.47;10.33;;;;;;;-141.97;45.20;47459.50;5095301;28;20171;-88
2023/10/04 07:40:26;;;;;;;21.73;10.70;;;;;;;-141.97;44.45;47324.97;5113021;28;20182;-87
2023/10/04 07:42:53;;;;;;;19.97;10.83;;;;;;;-141.97;44.19;47670.91;5094727;28;20229;-87
2023/10/04 07:45:23;;;;;;;20.93;10.20;;;;;;;-141.97;44.08;47457.56;5094842;28;20212;-88
2023/10/04 07:47:48;;;;;;;16.50;9.80;;;;;;;-141.97;44.97;47517.16;5113154;28;20874;-87
2023/10/04 07:50:18;;;;;;;18.53;10.43;;;;;;;-141.97;44.72;47313.44;5113812;28;20206;-90
2023/10/04 07:52:50;;;;;;;17.37;10.30;;;;;;;-141.97;43.20;47603.66;5095291;28;20239;-87
2023/10/04 07:55:18;;;;;;;20.73;10.43;;;;;;;-141.97;43.14;47292.28;5058413;28;20213;-90
2023/10/04 07:58:04;;;;;;;17.63;10.50;;;;;;;-141.97;42.48;47580.59;5036122;28;20197;-87
2023/10/04 08:00:31;;;;;;;19.70;9.80;;;;;;;-141.97;41.84;47492.16;5033594;28;20188;-89
2023/10/04 08:02:58;;;;;;;21.47;10.87;;;;;;;-141.97;41.70;47392.22;5050008;28;20185;-86
2023/10/04 08:05:29;;;;;;;20.60;10.27;;;;;;;-141.97;41.70;47540.22;5046868;28;20190;-83
2023/10/04 08:08:00;;;;;;;19.00;9.83;;;;;;;-141.97;40.90;47522.91;5024832;28;20181;-90
2023/10/04 08:10:29;;;;;;;20.03;10.30;;;;;;;-141.97;41.13;47569.06;5047842;28;20336;-85
2023/10/04 08:12:56;;;;;;;21.57;9.80;;;;;;;-141.97;40.39;47469.09;5060644;28;20638;-86
2023/10/04 08:15:25;;;;;;;20.50;10.20;;;;;;;-141.97;40.19;47463.34;5049170;28;20193;-85
2023/10/04 08:17:52;;;;;;;19.53;9.57;;;;;;;-141.97;39.51;47447.97;5049433;28;20169;-86
2023/10/04 08:20:21;;;;;;;18.23;9.80;;;;;;;-141.97;40.45;47434.50;5032433;28;20196;-85
2023/10/04 08:22:47;;;;;;;17.37;10.33;;;;;;;-141.97;40.32;47301.91;5049549;28;20173;-85
2023/10/04 08:25:27;;;;;;;20.37;10.40;;;;;;;-141.97;39.84;47426.81;5039171;28;20289;-86
2023/10/04 08:27:53;;;;;;;19.03;10.70;;;;;;;-141.97;39.54;47680.53;5112459;28;20159;-86
2023/10/04 08:30:20;;;;;;;21.13;9.90;;;;;;;-141.97;39.68;47457.56;5093191;28;20285;-85
2023/10/04 08:32:50;;;;;;;17.57;10.03;;;;;;;-141.97;40.19;47415.28;5112436;28;20187;-85
2023/10/04 08:35:27;;;;;;;18.53;9.87;;;;;;;-141.97;39.19;47442.19;5090441;28;20219;-85
2023/10/04 08:37:53;;;;;;;19.17;10.10;;;;;;;-141.97;38.72;47430.66;5092998;28;20159;-85
2023/10/04 08:40:23;;;;;;;24.43;10.40;;;;;;;-141.97;37.56;47446.03;5100455;28;20156;-86
2023/10/04 08:42:50;;;;;;;19.27;9.67;;;;;;;-141.97;36.98;47432.59;5100346;28;20202;-86
2023/10/04 08:45:17;;;;;;;19.17;9.90;;;;;;;-141.97;36.59;47461.41;5102578;28;20152;-86
2023/10/04 08:47:50;;;;;;;17.37;9.40;;;;;;;-141.97;36.50;47430.66;5100548;28;20609;-87
2023/10/04 08:50:20;;;;;;;20.17;9.90;;;;;;;-141.97;37.98;47348.03;5093063;28;20263;-86
2023/10/04 08:52:47;;;;;;;19.87;9.70;;;;;;;-141.97;37.33;47617.09;5092899;28;20193;-87
2023/10/04 08:55:17;;;;;;;22.07;10.17;;;;;;;-141.97;36.09;47342.25;5098889;28;20199;-85
2023/10/04 08:57:43;;;;;;;18.77;10.27;;;;;;;-141.97;37.44;47442.19;5100826;28;20174;-87
2023/10/04 09:00:13;;;;;;;22.93;10.30;;;;;;;-141.97;36.37;47455.66;5099540;28;20164;-89
2023/10/04 09:02:44;;;;;;;17.97;9.43;;;;;;;-141.97;35.81;47584.44;5110484;28;20172;-87
2023/10/04 09:05:16;;;;;;;14.97;9.13;;;;;;;-141.97;36.10;47569.06;5098926;28;20210;-87
2023/10/04 09:07:45;;;;;;;18.33;9.90;;;;;;;-141.97;35.08;47278.84;5094737;28;20167;-90
2023/10/04 09:10:16;;;;;;;19.63;9.70;;;;;;;-141.97;34.92;47557.53;5096330;28;20260;-87
2023/10/04 09:12:47;;;;;;;21.57;9.60;;;;;;;-141.97;35.17;47263.47;5085385;28;20223;-89
2023/10/04 09:15:13;;;;;;;19.60;10.00;;;;;;;-141.97;35.23;47638.25;5098070;28;20172;-85
2023/10/04 09:17:57;;;;;;;19.13;10.27;;;;;;;-141.97;35.51;47446.03;5100541;28;20152;-91
2023/10/04 09:20:30;;;;;;;21.57;10.33;;;;;;;-141.97;34.82;47399.91;5098217;28;20168;-87
2023/10/04 09:22:59;;;;;;;18.67;9.83;;;;;;;-141.97;34.63;47430.66;5098109;28;20164;-85
2023/10/04 09:25:35;;;;;;;27.20;14.23;;;;;;;-141.97;35.11;47432.59;5096097;28;20171;-89
2023/10/04 09:28:01;;;;;;;16.83;10.40;;;;;;;-141.97;34.50;47398.00;5096822;28;20681;-87
2023/10/04 09:30:26;;;;;;;17.63;10.90;;;;;;;-141.97;34.65;47413.38;5100562;28;20188;-87
2023/10/04 09:32:52;;;;;;;16.83;9.97;;;;;;;-141.97;34.71;47434.50;5102198;28;20268;-87
2023/10/04 09:35:21;;;;;;;14.97;9.67;;;;;;;-141.97;35.08;47432.59;5100237;28;20303;-87
2023/10/04 09:37:50;;;;;;;22.97;13.93;;;;;;;-141.97;34.51;47382.63;5098848;28;20160;-87
2023/10/04 09:40:17;;;;;;;17.27;10.43;;;;;;;-141.97;33.73;47417.22;5099924;28;20148;-88
2023/10/04 09:42:55;;;;;;;19.07;10.00;;;;;;;-141.97;33.75;47434.50;5099222;28;20171;-87
2023/10/04 09:45:24;;;;;;;22.73;13.10;;;;;;;-141.97;33.34;47617.09;5078469;28;20646;-91
2023/10/04 09:47:51;;;;;;;17.33;10.50;;;;;;;-141.97;33.03;47422.97;5078628;28;20600;-87
2023/10/04 09:50:26;;;;;;;19.48;9.80;;;;;;;-141.97;33.08;47382.63;5097731;28;20648;-86
2023/10/04 09:52:53;;;;;;;17.92;9.57;;;;;;;-141.97;32.92;47399.91;5096491;28;20531;-85
2023/10/04 09:55:22;;;;;;;15.45;10.02;;;;;;;-141.97;33.08;47332.66;5096142;28;20166;-86
2023/10/04 09:57:48;;;;;;;15.50;9.70;;;;;;;-141.97;32.92;47288.44;5094654;28;20158;-86
2023/10/04 10:00:18;;;;;;;16.25;10.15;;;;;;;-141.97;32.13;47288.44;5095329;28;20705;-86
2023/10/04 10:02:49;;;;;;;16.45;10.20;;;;;;;-141.97;31.80;47378.78;5079199;28;20160;-87
2023/10/04 10:05:31;;;;;;;21.48;10.32;;;;;;;-141.97;31.70;47369.16;5067419;28;20264;-86
2023/10/04 10:08:04;;;;;;;16.27;9.82;;;;;;;-141.97;31.27;47463.34;5094932;28;20155;-87
2023/10/04 10:10:33;;;;;;;17.55;10.70;;;;;;;-141.97;31.58;47390.31;5065035;28;20213;-85
2023/10/04 10:12:59;;;;;;;19.08;9.90;;;;;;;-141.97;32.36;47219.25;5056780;28;20472;-88
2023/10/04 10:15:24;;;;;;;13.60;9.75;;;;;;;-141.97;32.64;47259.63;5066459;28;20224;-90
2023/10/04 10:17:51;;;;;;;15.38;10.00;;;;;;;-141.97;31.90;47373.00;5094594;28;20761;-88
2023/10/04 10:20:19;;;;;;;16.95;9.88;;;;;;;-141.97;31.50;47136.63;5077024;28;20202;-89
2023/10/04 10:22:58;;;;;;;18.50;10.63;;;;;;;-141.97;31.53;47396.06;5095021;28;20163;-86
2023/10/04 10:25:25;;;;;;;17.38;11.23;;;;;;;-141.97;31.40;47392.22;5098396;28;20194;-87
2023/10/04 10:27:55;;;;;;;16.75;9.98;;;;;;;-141.97;31.29;47180.81;5119362;28;20134;-86
2023/10/04 10:30:23;;;;;;;16.33;9.45;;;;;;;-141.97;31.54;47474.88;5085621;28;20209;-86
2023/10/04 10:32:55;;;;;;;16.42;10.02;;;;;;;-141.97;31.32;47482.56;5096266;28;20159;-86
2023/10/04 10:35:59;;;;;;;16.13;10.02;;;;;;;-141.97;31.12;47394.16;5087325;28;20222;-86
2023/10/04 10:38:44;;;;;;;15.00;9.55;;;;;;;-141.97;30.81;47323.03;5113828;28;20191;-87
2023/10/04 10:41:28;;;;;;;17.83;9.32;;;;;;;-141.97;30.92;47359.56;5113797;28;20246;-85
2023/10/04 10:44:18;;;;;;;17.73;10.23;;;;;;;-141.97;30.78;47382.63;5113669;28;20163;-86
2023/10/04 10:47:06;;;;;;;17.05;10.02;;;;;;;-141.97;30.46;47380.69;5095808;28;20210;-89
2023/10/04 10:50:04;;;;;;;17.38;10.65;;;;;;;-141.97;30.66;47378.78;5111069;28;20196;-87
2023/10/04 10:52:39;;;;;;;17.98;10.00;;;;;;;-141.97;30.83;47369.16;5114681;28;20164;-88
2023/10/04 10:55:07;;;;;;;17.00;10.23;;;;;;;-141.97;30.30;47374.94;5114330;28;20173;-90
2023/10/04 10:57:38;;;;;;;19.35;11.45;;;;;;;-141.97;30.69;47394.16;5114792;28;20618;-87
2023/10/04 11:00:19;;;;;;;16.63;10.10;;;;;;;-141.97;30.52;47284.59;5115015;28;20156;-86
2023/10/04 11:02:48;;;;;;;16.23;9.48;;;;;;;-141.97;30.89;47413.38;5114260;28;20182;-87
2023/10/04 11:05:16;;;;;;;41.53;26.27;;;;;;;-141.97;31.38;47271.16;5082496;28;20261;-86
2023/10/04 11:07:44;;;;;;;13.85;10.00;;;;;;;-141.97;31.30;47422.97;5113576;28;20547;-88
2023/10/04 11:10:15;;;;;;;39.38;23.17;;;;;;;-141.97;31.24;47321.13;5113476;28;20598;-87
2023/10/04 11:12:42;;;;;;;16.80;11.02;;;;;;;-141.97;31.48;47649.78;5103750;28;20250;-88
2023/10/04 11:15:08;;;;;;;20.17;11.20;;;;;;;-141.97;31.70;47367.25;5114575;28;20303;-88
2023/10/04 11:17:36;;;;;;;22.65;10.98;;;;;;;-141.97;31.27;47330.72;5089287;28;20209;-87
2023/10/04 11:20:12;;;;;;;13.70;9.50;;;;;;;-141.97;30.89;47569.06;5093408;28;20172;-85
2023/10/04 11:22:41;;;;;;;15.95;9.48;;;;;;;-141.97;31.09;47290.38;5074469;28;20228;-86
2023/10/04 11:25:08;;;;;;;15.35;9.60;;;;;;;-141.97;30.65;47384.53;5074054;28;20246;-86
2023/10/04 11:27:37;;;;;;;16.70;9.88;;;;;;;-141.97;30.77;47150.06;5092586;28;20164;-85